createdAt,value
2022-11-21T00:01:51.028Z,2.2
2022-11-21T00:06:53.518Z,2.2
2022-11-21T00:11:55.562Z,2.2
2022-11-21T00:16:59.376Z,2.1
2022-11-21T00:22:01.812Z,2.1
2022-11-21T00:27:03.781Z,2.1
2022-11-21T00:32:05.907Z,2.2
2022-11-21T00:38:20.689Z,2.1
2022-11-21T00:43:22.837Z,2
2022-11-21T00:48:24.939Z,2
2022-11-21T00:53:26.948Z,2.1
2022-11-21T00:58:29.413Z,2
2022-11-21T01:03:31.445Z,2
2022-11-21T01:08:33.496Z,2.1
2022-11-21T01:13:35.622Z,2.2
2022-11-21T01:18:37.624Z,2.3
2022-11-21T01:23:39.556Z,2.3
2022-11-21T01:28:41.625Z,2.3
2022-11-21T01:33:43.718Z,2.3
2022-11-21T01:38:45.695Z,2.3
2022-11-21T01:43:48.344Z,2.3
2022-11-21T01:48:50.361Z,2.3
2022-11-21T01:53:52.339Z,2.4
2022-11-21T01:58:54.373Z,2.4
2022-11-21T02:03:56.320Z,2.4
2022-11-21T02:08:58.454Z,2.5
2022-11-21T02:14:01.048Z,2.5
2022-11-21T02:19:03.190Z,2.5
2022-11-21T02:24:05.166Z,2.5
2022-11-21T02:29:07.210Z,2.4
2022-11-21T02:34:09.255Z,2.3
2022-11-21T02:39:11.725Z,2.3
2022-11-21T02:44:14.053Z,2.2
2022-11-21T02:49:16.445Z,2.2
2022-11-21T02:54:18.853Z,2.1
2022-11-21T02:59:20.932Z,2.1
2022-11-21T03:04:22.858Z,2
2022-11-21T03:09:25.090Z,1.9
2022-11-21T03:14:28.692Z,1.5
2022-11-21T03:19:31.640Z,1.5
2022-11-21T03:24:33.640Z,1.6
2022-11-21T03:29:35.722Z,1.5
2022-11-21T03:34:37.776Z,1.5
2022-11-21T03:39:39.815Z,1.3
2022-11-21T03:44:42.266Z,1.2
2022-11-21T03:49:44.274Z,1.1
2022-11-21T03:54:46.712Z,1
2022-11-21T03:59:48.882Z,1
2022-11-21T04:04:50.867Z,1
2022-11-21T04:09:53.079Z,0.9
2022-11-21T04:14:55.051Z,0.7
2022-11-21T04:19:57.121Z,0.5
2022-11-21T04:24:59.212Z,0.5
2022-11-21T04:30:01.644Z,0.4
2022-11-21T04:35:03.704Z,0.4
2022-11-21T04:40:06.325Z,0.5
2022-11-21T04:45:08.521Z,0.5
2022-11-21T04:50:10.470Z,0.5
2022-11-21T04:55:12.674Z,0.6
2022-11-21T05:00:14.838Z,0.6
2022-11-21T05:05:14.994Z,0.5
2022-11-21T05:10:17.082Z,0.6
2022-11-21T05:15:26.356Z,0.5
2022-11-21T05:20:28.391Z,0.5
2022-11-21T05:25:35.768Z,0.5
2022-11-21T05:30:38.045Z,0.5
2022-11-21T05:35:45.082Z,0.4
2022-11-21T05:40:47.109Z,0.4
2022-11-21T05:45:50.603Z,0.4
2022-11-21T05:50:52.742Z,0.3
2022-11-21T05:55:54.724Z,0.3
2022-11-21T06:01:01.519Z,0.4
2022-11-21T06:06:03.429Z,0.4
2022-11-21T06:11:05.677Z,0.5
2022-11-21T06:16:07.662Z,0.6
2022-11-21T06:21:09.680Z,0.6
2022-11-21T06:26:12.011Z,0.4
2022-11-21T06:31:14.063Z,0.3
2022-11-21T06:36:16.032Z,0.4
2022-11-21T06:41:18.572Z,0.3
2022-11-21T06:46:21.471Z,0.6
2022-11-21T06:51:23.570Z,0.6
2022-11-21T07:01:26.265Z,0.6
2022-11-21T07:06:28.327Z,0.8
2022-11-21T07:11:30.354Z,0.5
2022-11-21T07:16:32.313Z,0.7
2022-11-21T07:21:34.349Z,0.8
2022-11-21T07:26:36.612Z,0.6
2022-11-21T07:31:38.589Z,0.6
2022-11-21T07:36:40.500Z,0.6
2022-11-21T07:41:42.714Z,0.5
2022-11-21T07:46:44.772Z,0.3
2022-11-21T07:51:46.802Z,0.2
2022-11-21T07:56:49.338Z,0.3
2022-11-21T08:01:51.556Z,0.2
2022-11-21T08:06:53.643Z,0.3
2022-11-21T08:11:55.884Z,0.4
2022-11-21T08:21:58.264Z,0.6
2022-11-21T08:27:00.214Z,0.8
2022-11-21T08:32:02.260Z,0.9
2022-11-21T08:37:04.285Z,1.3
2022-11-21T08:42:06.353Z,1.3
2022-11-21T08:47:08.395Z,1.9
2022-11-21T08:52:10.463Z,1.9
2022-11-21T08:57:13.090Z,2.2
2022-11-21T09:02:15.204Z,2.2
2022-11-21T09:07:17.330Z,2.3
2022-11-21T09:12:19.502Z,2.2
2022-11-21T09:17:21.479Z,2.8
2022-11-21T09:22:23.772Z,2.9
2022-11-21T09:27:25.762Z,3.3
2022-11-21T09:32:27.841Z,3.2
2022-11-21T09:37:29.886Z,3.1
2022-11-21T09:42:31.879Z,3.8
2022-11-21T09:47:34.254Z,3.8
2022-11-21T09:52:36.268Z,3.7
2022-11-21T09:57:38.397Z,3.9
2022-11-21T10:02:40.376Z,4.1
2022-11-21T10:07:42.911Z,4.3
2022-11-21T10:12:44.929Z,4.2
2022-11-21T10:17:49.174Z,4.6
2022-11-21T10:22:51.306Z,4.6
2022-11-21T10:27:53.323Z,4.9
2022-11-21T10:32:55.305Z,4.5
2022-11-21T10:37:57.343Z,4.3
2022-11-21T10:42:59.312Z,4.1
2022-11-21T10:48:09.369Z,4.8
2022-11-21T10:53:11.326Z,4.8
2022-11-21T10:58:13.552Z,5.3
2022-11-21T11:03:15.537Z,5.7
2022-11-21T11:08:17.530Z,5.5
2022-11-21T11:13:50.796Z,5.9
2022-11-21T11:18:23.363Z,6
2022-11-21T11:23:25.960Z,6
2022-11-21T11:28:28.074Z,5.9
2022-11-21T11:33:30.037Z,5.8
2022-11-21T11:38:31.988Z,5.2
2022-11-21T11:43:34.007Z,5.3
2022-11-21T11:49:21.558Z,5.7
2022-11-21T11:53:44.831Z,5.6
2022-11-21T11:58:46.876Z,5.5
2022-11-21T12:03:57.746Z,5.7
2022-11-21T12:08:50.294Z,5.7
2022-11-21T12:13:52.487Z,5.6
2022-11-21T12:18:54.596Z,5.3
2022-11-21T12:23:56.778Z,5.7
2022-11-21T12:28:58.847Z,6
2022-11-21T12:34:00.903Z,6.2
2022-11-21T12:39:02.908Z,5.9
2022-11-21T12:44:05.054Z,5.7
2022-11-21T12:49:07.101Z,5.6
2022-11-21T12:54:09.267Z,5.5
2022-11-21T12:59:11.843Z,5.6
2022-11-21T13:04:13.863Z,5.6
2022-11-21T13:09:15.814Z,5.6
2022-11-21T13:14:17.761Z,5.5
2022-11-21T13:19:19.752Z,5.1
2022-11-21T13:24:21.790Z,4.9
2022-11-21T13:29:23.867Z,4.6
2022-11-21T13:34:26.134Z,4.4
2022-11-21T13:39:30.433Z,4.2
2022-11-21T13:44:33.230Z,4.1
2022-11-21T13:49:35.517Z,4.1
2022-11-21T13:54:37.496Z,4.1
2022-11-21T13:59:39.551Z,4.1
2022-11-21T14:04:41.717Z,4.1
2022-11-21T14:09:43.676Z,4.1
2022-11-21T14:14:45.696Z,4.1
2022-11-21T14:19:47.701Z,4.1
2022-11-21T14:24:51.025Z,4.1
2022-11-21T14:29:53.036Z,4.1
2022-11-21T14:34:55.021Z,4
2022-11-21T14:39:59.197Z,4
2022-11-21T14:45:01.265Z,4
2022-11-21T14:50:09.334Z,3.9
2022-11-21T14:55:41.511Z,3.9
2022-11-21T15:01:00.597Z,3.9
2022-11-21T15:05:14.165Z,3.9
2022-11-21T15:10:34.307Z,3.8
2022-11-21T15:15:17.186Z,3.8
2022-11-21T15:20:19.157Z,3.9
2022-11-21T15:25:21.175Z,3.9
2022-11-21T15:30:23.316Z,3.8
2022-11-21T15:35:33.424Z,3.9
2022-11-21T15:40:25.542Z,3.9
2022-11-21T15:45:27.622Z,3.9
2022-11-21T15:50:29.670Z,4
2022-11-21T15:55:31.603Z,4
2022-11-21T16:00:34.081Z,4.1
2022-11-21T16:05:36.130Z,4.1
2022-11-21T16:10:38.148Z,4
2022-11-21T16:15:40.773Z,4
2022-11-21T16:20:43.708Z,4
2022-11-21T16:25:46.926Z,4
2022-11-21T16:35:49.860Z,4
2022-11-21T16:40:51.972Z,4
2022-11-21T16:45:53.980Z,4
2022-11-21T16:50:56.171Z,3.9
2022-11-21T16:55:58.641Z,3.8
2022-11-21T17:01:01.326Z,3.7
2022-11-21T17:06:03.407Z,3.7
2022-11-21T17:11:05.837Z,3.8
2022-11-21T17:16:07.907Z,3.7
2022-11-21T17:21:09.925Z,3.7
2022-11-21T17:26:11.947Z,3.7
2022-11-21T17:31:13.960Z,3.7
2022-11-21T17:36:16.123Z,3.6
2022-11-21T17:41:18.115Z,3.5
2022-11-21T17:46:20.089Z,3.5
2022-11-21T17:51:22.411Z,3.5
2022-11-21T17:56:24.449Z,3.5
2022-11-21T18:01:27.237Z,3.5
2022-11-21T18:06:29.941Z,3.5
2022-11-21T18:11:41.386Z,3.3
2022-11-21T18:16:33.611Z,3.3
2022-11-21T18:21:35.677Z,3.2
2022-11-21T18:31:38.147Z,3.2
2022-11-21T18:36:40.193Z,3.3
2022-11-21T18:41:42.168Z,3.2
2022-11-21T18:46:44.303Z,3.2
2022-11-21T18:51:46.553Z,3.1
2022-11-21T18:56:49.870Z,3.1
2022-11-21T19:01:52.170Z,3.2
2022-11-21T19:06:54.389Z,3.2
2022-11-21T19:11:56.417Z,3.2
2022-11-21T19:16:58.778Z,3.2
2022-11-21T19:22:01.242Z,3.5
2022-11-21T19:27:03.209Z,3.5
2022-11-21T19:32:05.276Z,3.6
2022-11-21T19:37:07.375Z,3.6
2022-11-21T19:42:09.528Z,3.6
2022-11-21T19:47:11.595Z,3.6
2022-11-21T19:52:14.128Z,3.7
2022-11-21T19:57:16.338Z,3.8
2022-11-21T20:02:18.423Z,3.7
2022-11-21T20:07:20.877Z,3.6
2022-11-21T20:12:23.009Z,3.6
2022-11-21T20:17:25.183Z,3.6
2022-11-21T20:22:27.190Z,3.6
2022-11-21T20:27:29.215Z,3.5
2022-11-21T20:32:31.230Z,3.5
2022-11-21T20:37:33.184Z,3.4
2022-11-21T20:42:35.343Z,3.6
2022-11-21T20:47:37.386Z,3.6
2022-11-21T20:54:00.136Z,3.6
2022-11-21T20:57:45.632Z,3.6
2022-11-21T21:02:47.816Z,3.6
2022-11-21T21:07:50.558Z,3.5
2022-11-21T21:12:52.559Z,3.5
2022-11-21T21:17:54.525Z,3.6
2022-11-21T21:22:56.500Z,3.6
2022-11-21T21:27:59.354Z,3.6
2022-11-21T21:33:01.822Z,3.6
2022-11-21T21:38:10.355Z,3.7
2022-11-21T21:43:12.326Z,3.7
2022-11-21T21:48:14.327Z,3.6
2022-11-21T21:53:16.410Z,3.6
2022-11-21T21:58:18.530Z,3.5
2022-11-21T22:03:20.477Z,3.3
2022-11-21T22:08:22.668Z,3.3
2022-11-21T22:13:24.694Z,3.2
2022-11-21T22:18:26.630Z,3.2
2022-11-21T22:23:28.607Z,3.1
2022-11-21T22:28:30.640Z,3
2022-11-21T22:33:32.766Z,3
2022-11-21T22:38:34.708Z,3
2022-11-21T22:43:36.675Z,2.9
2022-11-21T22:48:39.275Z,2.9
2022-11-21T22:53:42.275Z,2.9
2022-11-21T22:58:44.248Z,2.9
2022-11-21T23:03:46.797Z,2.8
2022-11-21T23:08:48.846Z,2.8
2022-11-21T23:13:50.986Z,2.6
2022-11-21T23:18:52.988Z,2.5
2022-11-21T23:23:54.999Z,2.3
2022-11-21T23:33:57.655Z,2.1
2022-11-21T23:38:59.655Z,2.1
2022-11-21T23:44:01.667Z,2
2022-11-21T23:49:03.725Z,2
2022-11-21T23:54:05.879Z,1.8
2022-11-21T23:59:07.838Z,1.7
